sensor_id;sensor_type;location;lat;lon;timestamp;P1;durP1;ratioP1;P2;durP2;ratioP2
12703;SDS011;6416;52.182;7.650;2023-05-21T00:01:41;2.40;;;2.20;;
12703;SDS011;6416;52.182;7.650;2023-05-21T00:04:07;2.78;;;2.40;;
12703;SDS011;6416;52.182;7.650;2023-05-21T00:06:33;4.95;;;2.30;;
12703;SDS011;6416;52.182;7.650;2023-05-21T00:08:59;3.40;;;2.40;;
12703;SDS011;6416;52.182;7.650;2023-05-21T00:11:24;2.85;;;2.63;;
12703;SDS011;6416;52.182;7.650;2023-05-21T00:13:50;3.35;;;2.20;;
12703;SDS011;6416;52.182;7.650;2023-05-21T00:16:15;2.55;;;2.33;;
12703;SDS011;6416;52.182;7.650;2023-05-21T00:18:41;2.55;;;2.22;;
12703;SDS011;6416;52.182;7.650;2023-05-21T00:21:06;2.28;;;2.08;;
12703;SDS011;6416;52.182;7.650;2023-05-21T00:23:32;3.35;;;2.80;;
12703;SDS011;6416;52.182;7.650;2023-05-21T00:25:57;2.67;;;2.22;;
12703;SDS011;6416;52.182;7.650;2023-05-21T00:28:23;4.97;;;3.03;;
12703;SDS011;6416;52.182;7.650;2023-05-21T00:30:48;2.55;;;2.35;;
12703;SDS011;6416;52.182;7.650;2023-05-21T00:33:14;4.40;;;3.33;;
12703;SDS011;6416;52.182;7.650;2023-05-21T00:35:39;2.83;;;2.53;;
12703;SDS011;6416;52.182;7.650;2023-05-21T00:38:05;3.15;;;2.85;;
12703;SDS011;6416;52.182;7.650;2023-05-21T00:40:30;2.97;;;2.58;;
12703;SDS011;6416;52.182;7.650;2023-05-21T00:42:56;2.80;;;2.60;;
12703;SDS011;6416;52.182;7.650;2023-05-21T00:45:21;2.72;;;2.50;;
12703;SDS011;6416;52.182;7.650;2023-05-21T00:47:47;3.85;;;2.78;;
12703;SDS011;6416;52.182;7.650;2023-05-21T00:50:12;2.60;;;2.40;;
12703;SDS011;6416;52.182;7.650;2023-05-21T00:52:38;2.85;;;2.60;;
12703;SDS011;6416;52.182;7.650;2023-05-21T00:55:04;5.15;;;3.22;;
12703;SDS011;6416;52.182;7.650;2023-05-21T00:57:30;2.65;;;2.45;;
12703;SDS011;6416;52.182;7.650;2023-05-21T00:59:56;3.00;;;2.70;;
12703;SDS011;6416;52.182;7.650;2023-05-21T01:02:21;3.40;;;2.70;;
12703;SDS011;6416;52.182;7.650;2023-05-21T01:04:46;2.80;;;2.60;;
12703;SDS011;6416;52.182;7.650;2023-05-21T01:07:12;2.83;;;2.63;;
12703;SDS011;6416;52.182;7.650;2023-05-21T01:09:38;3.00;;;2.80;;
12703;SDS011;6416;52.182;7.650;2023-05-21T01:12:04;2.80;;;2.60;;
12703;SDS011;6416;52.182;7.650;2023-05-21T01:14:31;4.03;;;3.23;;
12703;SDS011;6416;52.182;7.650;2023-05-21T01:16:58;3.17;;;2.80;;
12703;SDS011;6416;52.182;7.650;2023-05-21T01:19:24;3.78;;;2.80;;
12703;SDS011;6416;52.182;7.650;2023-05-21T01:21:55;3.07;;;2.73;;
12703;SDS011;6416;52.182;7.650;2023-05-21T01:24:24;2.90;;;2.70;;
12703;SDS011;6416;52.182;7.650;2023-05-21T01:26:50;3.10;;;2.70;;
12703;SDS011;6416;52.182;7.650;2023-05-21T01:29:16;3.50;;;3.20;;
12703;SDS011;6416;52.182;7.650;2023-05-21T01:42:53;3.07;;;2.77;;
12703;SDS011;6416;52.182;7.650;2023-05-21T01:45:19;3.63;;;3.30;;
12703;SDS011;6416;52.182;7.650;2023-05-21T01:47:48;4.20;;;3.10;;
12703;SDS011;6416;52.182;7.650;2023-05-21T01:50:15;3.40;;;2.60;;
12703;SDS011;6416;52.182;7.650;2023-05-21T01:52:52;3.28;;;2.97;;
12703;SDS011;6416;52.182;7.650;2023-05-21T01:55:19;4.30;;;3.00;;
12703;SDS011;6416;52.182;7.650;2023-05-21T01:57:45;4.13;;;3.00;;
12703;SDS011;6416;52.182;7.650;2023-05-21T02:00:10;3.47;;;2.90;;
12703;SDS011;6416;52.182;7.650;2023-05-21T02:02:37;4.40;;;3.13;;
12703;SDS011;6416;52.182;7.650;2023-05-21T02:05:02;3.67;;;3.37;;
12703;SDS011;6416;52.182;7.650;2023-05-21T02:07:28;3.35;;;3.05;;
12703;SDS011;6416;52.182;7.650;2023-05-21T02:09:53;4.43;;;3.47;;
12703;SDS011;6416;52.182;7.650;2023-05-21T02:12:19;5.07;;;3.30;;
12703;SDS011;6416;52.182;7.650;2023-05-21T02:14:44;3.43;;;3.10;;
12703;SDS011;6416;52.182;7.650;2023-05-21T02:17:10;4.60;;;3.17;;
12703;SDS011;6416;52.182;7.650;2023-05-21T02:19:35;3.43;;;3.13;;
12703;SDS011;6416;52.182;7.650;2023-05-21T02:22:01;3.92;;;3.55;;
12703;SDS011;6416;52.182;7.650;2023-05-21T02:24:26;2.77;;;2.57;;
12703;SDS011;6416;52.182;7.650;2023-05-21T02:26:52;3.47;;;3.17;;
12703;SDS011;6416;52.182;7.650;2023-05-21T02:29:17;3.50;;;3.20;;
12703;SDS011;6416;52.182;7.650;2023-05-21T02:31:42;3.60;;;3.30;;
12703;SDS011;6416;52.182;7.650;2023-05-21T02:34:08;4.00;;;3.60;;
12703;SDS011;6416;52.182;7.650;2023-05-21T02:36:33;3.80;;;3.17;;
12703;SDS011;6416;52.182;7.650;2023-05-21T02:38:59;3.77;;;3.47;;
12703;SDS011;6416;52.182;7.650;2023-05-21T02:41:24;4.80;;;3.77;;
12703;SDS011;6416;52.182;7.650;2023-05-21T02:43:50;3.93;;;3.40;;
12703;SDS011;6416;52.182;7.650;2023-05-21T02:46:15;4.47;;;3.57;;
12703;SDS011;6416;52.182;7.650;2023-05-21T02:48:41;3.80;;;3.50;;
12703;SDS011;6416;52.182;7.650;2023-05-21T02:51:06;3.60;;;3.30;;
12703;SDS011;6416;52.182;7.650;2023-05-21T02:53:31;3.63;;;3.33;;
12703;SDS011;6416;52.182;7.650;2023-05-21T02:55:57;3.70;;;3.40;;
12703;SDS011;6416;52.182;7.650;2023-05-21T02:58:22;3.77;;;3.37;;
12703;SDS011;6416;52.182;7.650;2023-05-21T03:00:48;4.10;;;3.70;;
12703;SDS011;6416;52.182;7.650;2023-05-21T03:03:13;3.63;;;3.27;;
12703;SDS011;6416;52.182;7.650;2023-05-21T03:05:39;4.07;;;3.67;;
12703;SDS011;6416;52.182;7.650;2023-05-21T03:08:04;4.07;;;3.63;;
12703;SDS011;6416;52.182;7.650;2023-05-21T03:10:30;5.07;;;3.50;;
12703;SDS011;6416;52.182;7.650;2023-05-21T03:12:55;3.73;;;3.43;;
12703;SDS011;6416;52.182;7.650;2023-05-21T03:15:21;3.43;;;3.13;;
12703;SDS011;6416;52.182;7.650;2023-05-21T03:17:46;4.63;;;3.20;;
12703;SDS011;6416;52.182;7.650;2023-05-21T03:20:11;5.07;;;3.50;;
12703;SDS011;6416;52.182;7.650;2023-05-21T03:22:37;3.43;;;3.13;;
12703;SDS011;6416;52.182;7.650;2023-05-21T03:25:02;4.50;;;3.70;;
12703;SDS011;6416;52.182;7.650;2023-05-21T03:27:28;4.73;;;3.77;;
12703;SDS011;6416;52.182;7.650;2023-05-21T03:29:53;4.00;;;3.60;;
12703;SDS011;6416;52.182;7.650;2023-05-21T03:32:19;3.80;;;3.50;;
12703;SDS011;6416;52.182;7.650;2023-05-21T03:34:44;3.83;;;3.53;;
12703;SDS011;6416;52.182;7.650;2023-05-21T03:37:10;3.88;;;3.53;;
12703;SDS011;6416;52.182;7.650;2023-05-21T03:39:35;3.07;;;2.87;;
12703;SDS011;6416;52.182;7.650;2023-05-21T03:42:01;8.60;;;3.40;;
12703;SDS011;6416;52.182;7.650;2023-05-21T03:44:26;3.80;;;3.40;;
12703;SDS011;6416;52.182;7.650;2023-05-21T03:46:52;3.63;;;3.33;;
12703;SDS011;6416;52.182;7.650;2023-05-21T03:49:18;5.50;;;4.13;;
12703;SDS011;6416;52.182;7.650;2023-05-21T03:51:44;4.70;;;3.60;;
12703;SDS011;6416;52.182;7.650;2023-05-21T03:54:09;4.07;;;3.70;;
12703;SDS011;6416;52.182;7.650;2023-05-21T03:56:35;3.80;;;3.43;;
12703;SDS011;6416;52.182;7.650;2023-05-21T03:59:00;3.83;;;3.53;;
12703;SDS011;6416;52.182;7.650;2023-05-21T04:01:26;3.67;;;3.37;;
12703;SDS011;6416;52.182;7.650;2023-05-21T04:03:51;5.13;;;3.70;;
12703;SDS011;6416;52.182;7.650;2023-05-21T04:06:17;5.30;;;3.40;;
12703;SDS011;6416;52.182;7.650;2023-05-21T04:08:42;3.67;;;3.37;;
12703;SDS011;6416;52.182;7.650;2023-05-21T04:11:08;3.63;;;3.27;;
12703;SDS011;6416;52.182;7.650;2023-05-21T04:13:33;3.33;;;3.03;;
12703;SDS011;6416;52.182;7.650;2023-05-21T04:15:59;3.30;;;3.00;;
12703;SDS011;6416;52.182;7.650;2023-05-21T04:18:24;3.73;;;3.43;;
12703;SDS011;6416;52.182;7.650;2023-05-21T04:20:50;3.83;;;3.43;;
12703;SDS011;6416;52.182;7.650;2023-05-21T04:23:15;3.80;;;3.50;;
12703;SDS011;6416;52.182;7.650;2023-05-21T04:25:41;3.37;;;3.07;;
12703;SDS011;6416;52.182;7.650;2023-05-21T04:28:06;3.80;;;3.50;;
12703;SDS011;6416;52.182;7.650;2023-05-21T04:30:32;4.20;;;3.37;;
12703;SDS011;6416;52.182;7.650;2023-05-21T04:32:57;4.50;;;3.27;;
12703;SDS011;6416;52.182;7.650;2023-05-21T04:35:23;4.33;;;3.60;;
12703;SDS011;6416;52.182;7.650;2023-05-21T04:37:48;3.77;;;3.43;;
12703;SDS011;6416;52.182;7.650;2023-05-21T04:40:14;3.40;;;3.10;;
12703;SDS011;6416;52.182;7.650;2023-05-21T04:42:39;3.70;;;3.33;;
12703;SDS011;6416;52.182;7.650;2023-05-21T04:45:05;4.13;;;3.23;;
12703;SDS011;6416;52.182;7.650;2023-05-21T04:47:31;3.73;;;3.43;;
12703;SDS011;6416;52.182;7.650;2023-05-21T04:49:56;4.38;;;3.30;;
12703;SDS011;6416;52.182;7.650;2023-05-21T04:52:22;6.22;;;3.33;;
12703;SDS011;6416;52.182;7.650;2023-05-21T04:54:47;3.67;;;3.38;;
12703;SDS011;6416;52.182;7.650;2023-05-21T04:57:13;4.28;;;3.28;;
12703;SDS011;6416;52.182;7.650;2023-05-21T04:59:38;4.35;;;3.28;;
12703;SDS011;6416;52.182;7.650;2023-05-21T05:02:04;3.83;;;3.50;;
12703;SDS011;6416;52.182;7.650;2023-05-21T05:04:30;5.00;;;3.55;;
12703;SDS011;6416;52.182;7.650;2023-05-21T05:06:55;3.88;;;3.30;;
12703;SDS011;6416;52.182;7.650;2023-05-21T05:09:21;3.50;;;3.20;;
12703;SDS011;6416;52.182;7.650;2023-05-21T05:11:46;4.95;;;3.30;;
12703;SDS011;6416;52.182;7.650;2023-05-21T05:14:12;3.72;;;3.20;;
12703;SDS011;6416;52.182;7.650;2023-05-21T05:16:37;3.47;;;3.17;;
12703;SDS011;6416;52.182;7.650;2023-05-21T05:19:03;3.88;;;3.17;;
12703;SDS011;6416;52.182;7.650;2023-05-21T05:21:34;4.43;;;3.72;;
12703;SDS011;6416;52.182;7.650;2023-05-21T05:24:00;3.95;;;3.55;;
12703;SDS011;6416;52.182;7.650;2023-05-21T05:26:25;3.67;;;3.35;;
12703;SDS011;6416;52.182;7.650;2023-05-21T05:28:51;3.60;;;3.30;;
12703;SDS011;6416;52.182;7.650;2023-05-21T05:31:16;4.57;;;3.42;;
12703;SDS011;6416;52.182;7.650;2023-05-21T05:33:42;3.47;;;3.17;;
12703;SDS011;6416;52.182;7.650;2023-05-21T05:36:07;3.45;;;3.15;;
12703;SDS011;6416;52.182;7.650;2023-05-21T05:38:33;4.00;;;3.70;;
12703;SDS011;6416;52.182;7.650;2023-05-21T05:40:59;3.42;;;3.13;;
12703;SDS011;6416;52.182;7.650;2023-05-21T05:43:24;4.00;;;3.58;;
12703;SDS011;6416;52.182;7.650;2023-05-21T05:45:50;4.43;;;3.70;;
12703;SDS011;6416;52.182;7.650;2023-05-21T05:48:16;3.95;;;3.40;;
12703;SDS011;6416;52.182;7.650;2023-05-21T05:50:41;3.63;;;3.33;;
12703;SDS011;6416;52.182;7.650;2023-05-21T05:53:07;3.70;;;3.40;;
12703;SDS011;6416;52.182;7.650;2023-05-21T05:55:32;3.60;;;3.30;;
12703;SDS011;6416;52.182;7.650;2023-05-21T05:57:58;5.70;;;3.72;;
12703;SDS011;6416;52.182;7.650;2023-05-21T06:00:23;3.75;;;3.42;;
12703;SDS011;6416;52.182;7.650;2023-05-21T06:02:49;3.17;;;2.95;;
12703;SDS011;6416;52.182;7.650;2023-05-21T06:05:14;4.10;;;3.40;;
12703;SDS011;6416;52.182;7.650;2023-05-21T06:07:40;3.92;;;3.60;;
12703;SDS011;6416;52.182;7.650;2023-05-21T06:10:06;4.07;;;3.67;;
12703;SDS011;6416;52.182;7.650;2023-05-21T06:12:32;4.45;;;4.00;;
12703;SDS011;6416;52.182;7.650;2023-05-21T06:14:57;3.65;;;3.38;;
12703;SDS011;6416;52.182;7.650;2023-05-21T06:17:23;3.90;;;3.50;;
12703;SDS011;6416;52.182;7.650;2023-05-21T06:19:48;3.97;;;3.58;;
12703;SDS011;6416;52.182;7.650;2023-05-21T06:22:14;3.78;;;3.47;;
12703;SDS011;6416;52.182;7.650;2023-05-21T06:24:39;4.65;;;3.70;;
12703;SDS011;6416;52.182;7.650;2023-05-21T06:27:05;3.97;;;3.58;;
12703;SDS011;6416;52.182;7.650;2023-05-21T06:29:30;3.67;;;3.38;;
12703;SDS011;6416;52.182;7.650;2023-05-21T06:31:56;3.83;;;3.53;;
12703;SDS011;6416;52.182;7.650;2023-05-21T06:34:21;3.63;;;3.33;;
12703;SDS011;6416;52.182;7.650;2023-05-21T06:36:47;6.35;;;3.63;;
12703;SDS011;6416;52.182;7.650;2023-05-21T06:39:12;3.40;;;3.10;;
12703;SDS011;6416;52.182;7.650;2023-05-21T06:41:38;4.03;;;3.63;;
12703;SDS011;6416;52.182;7.650;2023-05-21T06:44:03;3.92;;;3.30;;
12703;SDS011;6416;52.182;7.650;2023-05-21T06:46:29;3.70;;;3.40;;
12703;SDS011;6416;52.182;7.650;2023-05-21T06:48:54;4.07;;;3.67;;
12703;SDS011;6416;52.182;7.650;2023-05-21T06:51:20;3.88;;;3.58;;
12703;SDS011;6416;52.182;7.650;2023-05-21T06:53:45;4.15;;;3.22;;
12703;SDS011;6416;52.182;7.650;2023-05-21T06:56:11;3.65;;;3.28;;
12703;SDS011;6416;52.182;7.650;2023-05-21T06:58:36;3.47;;;3.20;;
12703;SDS011;6416;52.182;7.650;2023-05-21T07:01:02;4.20;;;3.80;;
12703;SDS011;6416;52.182;7.650;2023-05-21T07:03:27;3.85;;;3.55;;
12703;SDS011;6416;52.182;7.650;2023-05-21T07:05:53;3.55;;;3.25;;
12703;SDS011;6416;52.182;7.650;2023-05-21T07:08:18;3.75;;;3.45;;
12703;SDS011;6416;52.182;7.650;2023-05-21T07:10:44;4.15;;;3.70;;
12703;SDS011;6416;52.182;7.650;2023-05-21T07:13:09;3.88;;;3.58;;
12703;SDS011;6416;52.182;7.650;2023-05-21T07:15:35;4.10;;;3.70;;
12703;SDS011;6416;52.182;7.650;2023-05-21T07:18:00;3.72;;;3.42;;
12703;SDS011;6416;52.182;7.650;2023-05-21T07:20:26;4.18;;;3.50;;
12703;SDS011;6416;52.182;7.650;2023-05-21T07:22:51;3.85;;;3.55;;
12703;SDS011;6416;52.182;7.650;2023-05-21T07:25:17;3.70;;;3.40;;
12703;SDS011;6416;52.182;7.650;2023-05-21T07:27:42;3.65;;;3.35;;
12703;SDS011;6416;52.182;7.650;2023-05-21T07:33:07;3.75;;;3.45;;
12703;SDS011;6416;52.182;7.650;2023-05-21T07:35:33;3.75;;;3.45;;
12703;SDS011;6416;52.182;7.650;2023-05-21T07:37:58;4.13;;;3.83;;
12703;SDS011;6416;52.182;7.650;2023-05-21T07:40:24;4.38;;;3.97;;
12703;SDS011;6416;52.182;7.650;2023-05-21T07:42:49;4.13;;;3.72;;
12703;SDS011;6416;52.182;7.650;2023-05-21T07:45:15;3.80;;;3.50;;
12703;SDS011;6416;52.182;7.650;2023-05-21T07:47:40;5.25;;;3.90;;
12703;SDS011;6416;52.182;7.650;2023-05-21T07:50:06;4.57;;;4.13;;
12703;SDS011;6416;52.182;7.650;2023-05-21T07:52:32;4.65;;;4.25;;
12703;SDS011;6416;52.182;7.650;2023-05-21T07:54:57;4.05;;;3.75;;
12703;SDS011;6416;52.182;7.650;2023-05-21T07:57:23;3.90;;;3.53;;
12703;SDS011;6416;52.182;7.650;2023-05-21T07:59:48;3.88;;;3.58;;
12703;SDS011;6416;52.182;7.650;2023-05-21T08:02:14;4.18;;;3.78;;
12703;SDS011;6416;52.182;7.650;2023-05-21T08:04:39;4.47;;;4.07;;
12703;SDS011;6416;52.182;7.650;2023-05-21T08:07:05;5.15;;;3.80;;
12703;SDS011;6416;52.182;7.650;2023-05-21T08:09:30;4.72;;;4.03;;
12703;SDS011;6416;52.182;7.650;2023-05-21T08:11:55;4.18;;;3.88;;
12703;SDS011;6416;52.182;7.650;2023-05-21T08:14:21;4.20;;;3.80;;
12703;SDS011;6416;52.182;7.650;2023-05-21T08:16:46;4.35;;;3.88;;
12703;SDS011;6416;52.182;7.650;2023-05-21T08:19:12;4.40;;;4.00;;
12703;SDS011;6416;52.182;7.650;2023-05-21T08:21:37;7.55;;;4.30;;
12703;SDS011;6416;52.182;7.650;2023-05-21T08:24:03;4.60;;;4.20;;
12703;SDS011;6416;52.182;7.650;2023-05-21T08:26:29;5.57;;;4.80;;
12703;SDS011;6416;52.182;7.650;2023-05-21T08:28:54;4.88;;;4.38;;
12703;SDS011;6416;52.182;7.650;2023-05-21T08:31:20;5.32;;;4.88;;
12703;SDS011;6416;52.182;7.650;2023-05-21T08:33:54;5.15;;;4.75;;
12703;SDS011;6416;52.182;7.650;2023-05-21T08:36:19;5.05;;;4.65;;
12703;SDS011;6416;52.182;7.650;2023-05-21T08:38:45;5.35;;;4.85;;
12703;SDS011;6416;52.182;7.650;2023-05-21T08:41:11;5.38;;;4.97;;
12703;SDS011;6416;52.182;7.650;2023-05-21T08:43:37;4.50;;;4.10;;
12703;SDS011;6416;52.182;7.650;2023-05-21T08:46:02;4.85;;;4.30;;
12703;SDS011;6416;52.182;7.650;2023-05-21T08:48:28;4.80;;;4.40;;
12703;SDS011;6416;52.182;7.650;2023-05-21T08:51:10;4.38;;;3.97;;
12703;SDS011;6416;52.182;7.650;2023-05-21T08:53:36;5.68;;;4.50;;
12703;SDS011;6416;52.182;7.650;2023-05-21T08:56:01;4.80;;;4.40;;
12703;SDS011;6416;52.182;7.650;2023-05-21T08:58:28;5.60;;;4.38;;
12703;SDS011;6416;52.182;7.650;2023-05-21T09:00:56;5.25;;;4.32;;
12703;SDS011;6416;52.182;7.650;2023-05-21T09:03:22;6.10;;;4.95;;
12703;SDS011;6416;52.182;7.650;2023-05-21T09:05:48;5.43;;;4.80;;
12703;SDS011;6416;52.182;7.650;2023-05-21T09:10:51;4.65;;;4.00;;
12703;SDS011;6416;52.182;7.650;2023-05-21T09:13:17;5.30;;;4.80;;
12703;SDS011;6416;52.182;7.650;2023-05-21T09:15:44;4.90;;;4.43;;
12703;SDS011;6416;52.182;7.650;2023-05-21T09:18:10;5.07;;;4.60;;
12703;SDS011;6416;52.182;7.650;2023-05-21T09:20:42;5.55;;;4.85;;
12703;SDS011;6416;52.182;7.650;2023-05-21T09:23:08;5.10;;;4.60;;
12703;SDS011;6416;52.182;7.650;2023-05-21T09:25:33;4.72;;;4.32;;
12703;SDS011;6416;52.182;7.650;2023-05-21T09:28:02;5.10;;;4.70;;
12703;SDS011;6416;52.182;7.650;2023-05-21T09:30:28;5.55;;;4.93;;
12703;SDS011;6416;52.182;7.650;2023-05-21T09:35:56;5.03;;;4.63;;
12703;SDS011;6416;52.182;7.650;2023-05-21T09:38:22;5.38;;;4.97;;
12703;SDS011;6416;52.182;7.650;2023-05-21T09:40:48;4.38;;;4.05;;
12703;SDS011;6416;52.182;7.650;2023-05-21T09:43:14;5.88;;;4.80;;
12703;SDS011;6416;52.182;7.650;2023-05-21T09:45:53;5.10;;;4.53;;
12703;SDS011;6416;52.182;7.650;2023-05-21T09:51:18;5.47;;;4.97;;
12703;SDS011;6416;52.182;7.650;2023-05-21T09:56:20;6.03;;;5.05;;
12703;SDS011;6416;52.182;7.650;2023-05-21T09:58:47;6.57;;;5.00;;
12703;SDS011;6416;52.182;7.650;2023-05-21T10:01:15;7.05;;;5.35;;
12703;SDS011;6416;52.182;7.650;2023-05-21T10:03:42;5.22;;;4.82;;
12703;SDS011;6416;52.182;7.650;2023-05-21T10:06:14;5.20;;;4.80;;
12703;SDS011;6416;52.182;7.650;2023-05-21T10:08:41;4.93;;;4.53;;
12703;SDS011;6416;52.182;7.650;2023-05-21T10:11:11;6.07;;;5.53;;
12703;SDS011;6416;52.182;7.650;2023-05-21T10:13:38;5.38;;;4.82;;
12703;SDS011;6416;52.182;7.650;2023-05-21T10:16:08;5.22;;;4.82;;
12703;SDS011;6416;52.182;7.650;2023-05-21T10:18:34;5.65;;;5.15;;
12703;SDS011;6416;52.182;7.650;2023-05-21T10:21:02;6.15;;;5.60;;
12703;SDS011;6416;52.182;7.650;2023-05-21T10:23:28;5.30;;;4.72;;
12703;SDS011;6416;52.182;7.650;2023-05-21T10:25:54;5.85;;;5.35;;
12703;SDS011;6416;52.182;7.650;2023-05-21T10:28:21;5.63;;;5.13;;
12703;SDS011;6416;52.182;7.650;2023-05-21T10:30:47;6.35;;;5.75;;
12703;SDS011;6416;52.182;7.650;2023-05-21T10:33:16;6.55;;;5.30;;
12703;SDS011;6416;52.182;7.650;2023-05-21T10:35:42;5.88;;;5.38;;
12703;SDS011;6416;52.182;7.650;2023-05-21T10:38:10;7.45;;;5.85;;
12703;SDS011;6416;52.182;7.650;2023-05-21T10:40:37;5.88;;;5.40;;
12703;SDS011;6416;52.182;7.650;2023-05-21T10:51:34;6.18;;;5.68;;
12703;SDS011;6416;52.182;7.650;2023-05-21T10:54:21;6.43;;;5.82;;
12703;SDS011;6416;52.182;7.650;2023-05-21T10:57:07;6.25;;;5.65;;
12703;SDS011;6416;52.182;7.650;2023-05-21T11:02:25;6.80;;;6.00;;
12703;SDS011;6416;52.182;7.650;2023-05-21T11:04:59;6.90;;;6.30;;
12703;SDS011;6416;52.182;7.650;2023-05-21T11:13:14;6.35;;;5.75;;
12703;SDS011;6416;52.182;7.650;2023-05-21T11:21:02;7.05;;;6.35;;
12703;SDS011;6416;52.182;7.650;2023-05-21T11:26:28;6.55;;;5.57;;
12703;SDS011;6416;52.182;7.650;2023-05-21T11:29:14;6.88;;;5.43;;
12703;SDS011;6416;52.182;7.650;2023-05-21T11:31:47;5.78;;;5.28;;
12703;SDS011;6416;52.182;7.650;2023-05-21T11:34:22;6.32;;;5.72;;
12703;SDS011;6416;52.182;7.650;2023-05-21T11:36:48;11.35;;;6.22;;
12703;SDS011;6416;52.182;7.650;2023-05-21T11:39:46;6.60;;;6.00;;
12703;SDS011;6416;52.182;7.650;2023-05-21T11:42:12;5.85;;;5.32;;
12703;SDS011;6416;52.182;7.650;2023-05-21T11:44:51;6.30;;;5.68;;
12703;SDS011;6416;52.182;7.650;2023-05-21T11:47:17;6.30;;;5.80;;
12703;SDS011;6416;52.182;7.650;2023-05-21T11:49:43;6.38;;;5.60;;
12703;SDS011;6416;52.182;7.650;2023-05-21T11:52:10;5.97;;;5.50;;
12703;SDS011;6416;52.182;7.650;2023-05-21T11:54:41;6.57;;;5.97;;
12703;SDS011;6416;52.182;7.650;2023-05-21T11:57:07;6.32;;;5.72;;
12703;SDS011;6416;52.182;7.650;2023-05-21T11:59:34;6.60;;;6.10;;
12703;SDS011;6416;52.182;7.650;2023-05-21T12:02:00;6.47;;;5.82;;
12703;SDS011;6416;52.182;7.650;2023-05-21T12:04:30;9.77;;;6.80;;
12703;SDS011;6416;52.182;7.650;2023-05-21T12:06:56;6.30;;;5.70;;
12703;SDS011;6416;52.182;7.650;2023-05-21T12:09:22;6.65;;;6.15;;
12703;SDS011;6416;52.182;7.650;2023-05-21T12:11:47;6.38;;;5.88;;
12703;SDS011;6416;52.182;7.650;2023-05-21T12:14:13;6.75;;;6.05;;
12703;SDS011;6416;52.182;7.650;2023-05-21T12:16:38;6.22;;;5.72;;
12703;SDS011;6416;52.182;7.650;2023-05-21T12:19:04;7.05;;;6.45;;
12703;SDS011;6416;52.182;7.650;2023-05-21T12:21:30;6.47;;;5.88;;
12703;SDS011;6416;52.182;7.650;2023-05-21T12:23:56;7.47;;;6.82;;
12703;SDS011;6416;52.182;7.650;2023-05-21T12:26:23;6.60;;;6.00;;
12703;SDS011;6416;52.182;7.650;2023-05-21T12:28:49;6.47;;;5.97;;
12703;SDS011;6416;52.182;7.650;2023-05-21T12:31:19;6.70;;;6.10;;
12703;SDS011;6416;52.182;7.650;2023-05-21T12:33:49;7.70;;;6.20;;
12703;SDS011;6416;52.182;7.650;2023-05-21T12:36:28;6.25;;;5.75;;
12703;SDS011;6416;52.182;7.650;2023-05-21T12:38:54;6.47;;;5.93;;
12703;SDS011;6416;52.182;7.650;2023-05-21T12:41:21;6.72;;;6.13;;
12703;SDS011;6416;52.182;7.650;2023-05-21T12:43:47;7.28;;;6.30;;
12703;SDS011;6416;52.182;7.650;2023-05-21T12:46:13;6.20;;;5.70;;
12703;SDS011;6416;52.182;7.650;2023-05-21T12:48:40;6.45;;;5.93;;
12703;SDS011;6416;52.182;7.650;2023-05-21T12:51:11;6.18;;;5.57;;
12703;SDS011;6416;52.182;7.650;2023-05-21T12:53:37;6.50;;;6.00;;
12703;SDS011;6416;52.182;7.650;2023-05-21T12:58:35;6.60;;;6.00;;
12703;SDS011;6416;52.182;7.650;2023-05-21T13:01:04;6.18;;;5.60;;
12703;SDS011;6416;52.182;7.650;2023-05-21T13:03:31;6.53;;;5.93;;
12703;SDS011;6416;52.182;7.650;2023-05-21T13:05:57;6.50;;;6.00;;
12703;SDS011;6416;52.182;7.650;2023-05-21T13:08:23;6.57;;;5.97;;
12703;SDS011;6416;52.182;7.650;2023-05-21T13:10:48;7.15;;;6.55;;
12703;SDS011;6416;52.182;7.650;2023-05-21T13:13:14;6.93;;;6.30;;
12703;SDS011;6416;52.182;7.650;2023-05-21T13:15:39;6.60;;;6.05;;
12703;SDS011;6416;52.182;7.650;2023-05-21T13:18:05;6.60;;;6.00;;
12703;SDS011;6416;52.182;7.650;2023-05-21T13:20:30;6.90;;;6.20;;
12703;SDS011;6416;52.182;7.650;2023-05-21T13:22:56;6.40;;;5.90;;
12703;SDS011;6416;52.182;7.650;2023-05-21T13:25:22;7.68;;;6.18;;
12703;SDS011;6416;52.182;7.650;2023-05-21T13:27:50;9.48;;;6.57;;
12703;SDS011;6416;52.182;7.650;2023-05-21T13:30:16;7.07;;;6.47;;
12703;SDS011;6416;52.182;7.650;2023-05-21T13:32:43;6.65;;;6.05;;
12703;SDS011;6416;52.182;7.650;2023-05-21T13:35:09;6.88;;;6.20;;
12703;SDS011;6416;52.182;7.650;2023-05-21T13:37:34;6.85;;;6.25;;
12703;SDS011;6416;52.182;7.650;2023-05-21T13:40:01;6.63;;;6.13;;
12703;SDS011;6416;52.182;7.650;2023-05-21T13:42:28;7.20;;;6.57;;
12703;SDS011;6416;52.182;7.650;2023-05-21T13:44:53;7.22;;;6.60;;
12703;SDS011;6416;52.182;7.650;2023-05-21T13:47:19;6.28;;;5.72;;
12703;SDS011;6416;52.182;7.650;2023-05-21T13:49:44;7.00;;;6.40;;
12703;SDS011;6416;52.182;7.650;2023-05-21T13:58:09;7.20;;;6.60;;
12703;SDS011;6416;52.182;7.650;2023-05-21T14:00:35;6.68;;;6.18;;
12703;SDS011;6416;52.182;7.650;2023-05-21T14:03:00;6.72;;;6.22;;
12703;SDS011;6416;52.182;7.650;2023-05-21T14:05:26;9.13;;;7.03;;
12703;SDS011;6416;52.182;7.650;2023-05-21T14:07:51;7.93;;;7.22;;
12703;SDS011;6416;52.182;7.650;2023-05-21T14:10:16;7.20;;;6.38;;
12703;SDS011;6416;52.182;7.650;2023-05-21T14:12:42;7.07;;;6.47;;
12703;SDS011;6416;52.182;7.650;2023-05-21T14:15:08;7.20;;;6.60;;
12703;SDS011;6416;52.182;7.650;2023-05-21T14:17:33;7.40;;;6.80;;
12703;SDS011;6416;52.182;7.650;2023-05-21T14:20:02;7.38;;;6.68;;
12703;SDS011;6416;52.182;7.650;2023-05-21T14:22:28;8.25;;;7.03;;
12703;SDS011;6416;52.182;7.650;2023-05-21T14:24:53;8.85;;;7.03;;
12703;SDS011;6416;52.182;7.650;2023-05-21T14:27:19;9.00;;;6.72;;
12703;SDS011;6416;52.182;7.650;2023-05-21T14:29:44;8.27;;;7.47;;
12703;SDS011;6416;52.182;7.650;2023-05-21T14:32:09;7.38;;;6.78;;
12703;SDS011;6416;52.182;7.650;2023-05-21T14:34:35;7.32;;;6.72;;
12703;SDS011;6416;52.182;7.650;2023-05-21T14:37:00;7.78;;;7.13;;
12703;SDS011;6416;52.182;7.650;2023-05-21T14:39:26;7.28;;;6.65;;
12703;SDS011;6416;52.182;7.650;2023-05-21T14:41:51;8.32;;;7.55;;
12703;SDS011;6416;52.182;7.650;2023-05-21T14:44:17;7.68;;;7.07;;
12703;SDS011;6416;52.182;7.650;2023-05-21T14:46:43;7.97;;;7.28;;
12703;SDS011;6416;52.182;7.650;2023-05-21T14:49:08;7.50;;;6.80;;
12703;SDS011;6416;52.182;7.650;2023-05-21T14:51:34;8.18;;;7.25;;
12703;SDS011;6416;52.182;7.650;2023-05-21T14:53:59;7.53;;;6.93;;
12703;SDS011;6416;52.182;7.650;2023-05-21T14:56:25;8.00;;;7.30;;
12703;SDS011;6416;52.182;7.650;2023-05-21T14:58:51;8.43;;;7.63;;
12703;SDS011;6416;52.182;7.650;2023-05-21T15:01:16;8.18;;;7.47;;
12703;SDS011;6416;52.182;7.650;2023-05-21T15:03:42;9.02;;;7.65;;
12703;SDS011;6416;52.182;7.650;2023-05-21T15:06:08;7.35;;;6.63;;
12703;SDS011;6416;52.182;7.650;2023-05-21T15:08:33;7.68;;;6.97;;
12703;SDS011;6416;52.182;7.650;2023-05-21T15:10:59;8.70;;;7.80;;
12703;SDS011;6416;52.182;7.650;2023-05-21T15:16:27;7.78;;;7.07;;
12703;SDS011;6416;52.182;7.650;2023-05-21T15:18:53;10.15;;;6.97;;
12703;SDS011;6416;52.182;7.650;2023-05-21T15:21:18;7.80;;;7.10;;
12703;SDS011;6416;52.182;7.650;2023-05-21T15:23:44;7.80;;;7.10;;
12703;SDS011;6416;52.182;7.650;2023-05-21T15:26:09;8.07;;;7.38;;
12703;SDS011;6416;52.182;7.650;2023-05-21T15:28:34;8.45;;;7.82;;
12703;SDS011;6416;52.182;7.650;2023-05-21T15:31:00;7.38;;;6.78;;
12703;SDS011;6416;52.182;7.650;2023-05-21T15:33:26;7.90;;;7.20;;
12703;SDS011;6416;52.182;7.650;2023-05-21T15:35:51;8.05;;;7.43;;
12703;SDS011;6416;52.182;7.650;2023-05-21T15:38:17;8.57;;;7.78;;
12703;SDS011;6416;52.182;7.650;2023-05-21T15:40:42;7.60;;;7.00;;
12703;SDS011;6416;52.182;7.650;2023-05-21T15:43:08;7.85;;;7.15;;
12703;SDS011;6416;52.182;7.650;2023-05-21T15:45:33;8.70;;;7.72;;
12703;SDS011;6416;52.182;7.650;2023-05-21T15:51:02;8.27;;;7.57;;
12703;SDS011;6416;52.182;7.650;2023-05-21T15:53:28;8.73;;;7.97;;
12703;SDS011;6416;52.182;7.650;2023-05-21T15:58:44;8.23;;;7.53;;
12703;SDS011;6416;52.182;7.650;2023-05-21T16:01:09;9.32;;;8.52;;
12703;SDS011;6416;52.182;7.650;2023-05-21T16:03:35;8.75;;;7.95;;